Time;durP1;ratioP1;P1;durP2;ratioP2;P2;SDS_P1;SDS_P2;PMS_P1;PMS_P2;Temp;Humidity;BMP_temperature;BMP_pressure;BME280_temperature;BME280_humidity;BME280_pressure;Samples;Min_cycle;Max_cycle;Signal;HPM_P1;HPM_P2
2023/10/01 00:01:40;;;;;;;6.07;3.60;;;;;;;25.39;42.68;100346.81;4482083;32;33530;-68
2023/10/01 00:04:09;;;;;;;6.97;3.90;;;;;;;25.35;42.69;100351.03;4469656;32;33127;-70
2023/10/01 00:06:36;;;;;;;7.32;3.42;;;;;;;25.34;42.64;100350.22;4469208;32;34731;-71
2023/10/01 00:09:07;;;;;;;8.32;4.20;;;;;;;25.32;42.63;100346.88;4481975;32;33603;-72
2023/10/01 00:11:56;;;;;;;7.20;3.78;;;;;;;25.33;42.64;100342.25;4482575;32;34605;-67
2023/10/01 00:14:25;;;;;;;8.18;3.08;;;;;;;25.34;42.65;100352.94;4468910;32;32397;-69
2023/10/01 00:16:55;;;;;;;6.05;3.78;;;;;;;25.34;42.61;100344.75;4456724;32;32870;-70
2023/10/01 00:19:23;;;;;;;5.97;3.15;;;;;;;25.37;42.50;100348.94;4468827;32;33726;-70
2023/10/01 00:21:52;;;;;;;8.55;3.30;;;;;;;25.34;42.48;100355.69;4481743;32;33716;-68
2023/10/01 00:24:21;;;;;;;6.53;3.70;;;;;;;25.35;42.47;100353.78;4481917;32;34201;-69
2023/10/01 00:27:01;;;;;;;6.80;3.55;;;;;;;25.34;42.48;100354.84;4458223;32;34112;-70
2023/10/01 00:29:29;;;;;;;5.82;3.55;;;;;;;25.35;42.40;100351.03;4443495;32;32951;-70
2023/10/01 00:31:56;;;;;;;5.60;3.30;;;;;;;25.33;42.36;100364.12;4468726;32;32714;-70
2023/10/01 00:34:25;;;;;;;5.68;3.08;;;;;;;25.34;42.33;100357.59;4481632;32;34193;-70
2023/10/01 00:36:53;;;;;;;5.82;3.42;;;;;;;25.32;42.26;100357.81;4481792;32;33993;-71
2023/10/01 00:39:22;;;;;;;4.78;3.05;;;;;;;25.32;42.34;100354.22;4482858;32;33881;-71
2023/10/01 00:41:52;;;;;;;6.78;3.25;;;;;;;25.30;42.26;100348.16;4443271;32;32781;-71
2023/10/01 00:44:20;;;;;;;4.78;3.05;;;;;;;25.31;42.21;100347.09;4456165;32;32414;-69
2023/10/01 00:46:48;;;;;;;4.62;3.35;;;;;;;25.31;42.22;100349.81;4468744;32;33840;-70
2023/10/01 00:49:17;;;;;;;7.95;3.20;;;;;;;25.31;42.12;100347.09;4481327;32;34754;-70
2023/10/01 00:51:46;;;;;;;5.53;3.50;;;;;;;25.32;42.07;100351.50;4482561;32;33289;-70
2023/10/01 00:54:13;;;;;;;5.43;3.05;;;;;;;25.30;42.16;100350.91;4458212;32;33332;-70
2023/10/01 00:56:43;;;;;;;6.57;4.00;;;;;;;25.32;42.11;100348.75;4483784;32;34688;-69
2023/10/01 00:59:14;;;;;;;5.68;3.25;;;;;;;25.30;42.10;100349.00;4483710;32;34021;-68
2023/10/01 01:01:41;;;;;;;5.43;2.75;;;;;;;25.30;42.14;100353.62;4483849;32;33830;-69
2023/10/01 01:04:10;;;;;;;5.75;3.12;;;;;;;25.33;42.03;100347.72;4471346;32;33242;-70
2023/10/01 01:06:39;;;;;;;5.78;3.47;;;;;;;25.31;42.04;100349.81;4483676;32;33966;-69
2023/10/01 01:09:11;;;;;;;5.80;2.95;;;;;;;25.30;41.90;100362.66;4470823;32;33955;-70
2023/10/01 01:11:40;;;;;;;5.28;3.17;;;;;;;25.28;41.84;100366.69;4471250;32;34470;-72
2023/10/01 01:14:08;;;;;;;4.60;2.85;;;;;;;25.27;41.78;100363.09;4483755;32;34119;-71
2023/10/01 01:16:40;;;;;;;5.07;2.65;;;;;;;25.27;41.72;100365.81;4483481;32;32976;-68
2023/10/01 01:19:09;;;;;;;5.43;2.83;;;;;;;25.28;41.79;100367.53;4470695;32;34921;-70
2023/10/01 01:21:42;;;;;;;5.32;3.00;;;;;;;25.36;41.60;100369.94;4483489;32;33737;-72
2023/10/01 01:24:11;;;;;;;6.78;3.17;;;;;;;25.32;41.72;100367.88;4483709;32;32980;-68
2023/10/01 01:26:41;;;;;;;5.80;3.10;;;;;;;25.31;41.68;100372.50;4471631;32;33716;-68
2023/10/01 01:29:29;;;;;;;5.28;3.10;;;;;;;25.28;41.69;100366.69;4467765;32;34398;-72
2023/10/01 01:32:15;;;;;;;5.95;3.42;;;;;;;25.33;41.53;100364.94;4480769;32;34768;-70
2023/10/01 01:34:46;;;;;;;8.63;3.10;;;;;;;25.42;41.44;100373.69;4467959;32;34232;-71
2023/10/01 01:37:30;;;;;;;4.45;2.95;;;;;;;25.39;41.46;100377.69;4467842;32;34630;-69
2023/10/01 01:39:58;;;;;;;5.32;2.67;;;;;;;25.35;41.51;100370.16;4468896;32;34475;-71
2023/10/01 01:42:26;;;;;;;7.40;3.15;;;;;;;25.32;41.46;100379.66;4469008;32;33877;-68
2023/10/01 01:47:42;;;;;;;5.30;2.67;;;;;;;25.27;41.50;100381.38;4446172;32;32643;-69
2023/10/01 01:50:21;;;;;;;3.80;2.30;;;;;;;25.28;41.37;100378.44;4468853;32;35078;-69
2023/10/01 01:52:49;;;;;;;5.45;2.75;;;;;;;25.26;41.43;100379.72;4467846;32;33398;-71
2023/10/01 01:55:25;;;;;;;5.50;2.65;;;;;;;25.25;41.44;100384.34;4468927;32;33064;-68
2023/10/01 02:00:31;;;;;;;4.95;2.90;;;;;;;25.23;41.16;100381.00;4471298;32;33684;-71
2023/10/01 02:02:59;;;;;;;5.03;3.00;;;;;;;25.24;41.14;100368.19;4466180;32;34240;-71
2023/10/01 02:05:28;;;;;;;4.37;2.87;;;;;;;25.22;41.19;100367.56;4484606;32;33445;-72
2023/10/01 02:08:06;;;;;;;4.40;2.83;;;;;;;25.22;41.11;100364.84;4484546;32;34424;-71
2023/10/01 02:10:44;;;;;;;5.05;3.03;;;;;;;25.23;41.17;100369.22;4484547;32;34054;-71
2023/10/01 02:13:13;;;;;;;6.97;3.10;;;;;;;25.23;41.10;100380.16;4484578;32;34567;-72
2023/10/01 02:15:41;;;;;;;4.65;2.87;;;;;;;25.24;41.04;100369.03;4484443;32;33122;-70
2023/10/01 02:18:09;;;;;;;5.82;3.10;;;;;;;25.22;41.05;100376.59;4483137;32;32796;-71
2023/10/01 02:20:37;;;;;;;4.87;2.50;;;;;;;25.25;41.19;100372.59;4484407;32;34483;-72
2023/10/01 02:23:12;;;;;;;5.37;3.33;;;;;;;25.25;41.11;100372.59;4483486;32;33369;-71
2023/10/01 02:25:45;;;;;;;6.05;2.92;;;;;;;25.24;41.13;100373.66;4484459;32;33138;-71
2023/10/01 02:28:14;;;;;;;4.90;2.40;;;;;;;25.31;40.95;100377.97;4483300;32;33965;-68
2023/10/01 02:30:44;;;;;;;4.32;2.60;;;;;;;25.29;40.99;100376.53;4483242;32;33703;-68
2023/10/01 02:33:21;;;;;;;6.75;3.03;;;;;;;25.25;40.92;100383.50;4483127;32;33391;-70
2023/10/01 02:35:50;;;;;;;5.28;2.37;;;;;;;25.26;40.95;100375.09;4495157;31;33230;-69
2023/10/01 02:41:08;;;;;;;4.22;2.50;;;;;;;25.22;40.97;100371.12;4484128;32;34658;-69
2023/10/01 02:43:41;;;;;;;5.40;2.42;;;;;;;25.21;40.85;100382.28;4470434;32;34313;-71
2023/10/01 02:46:12;;;;;;;5.32;2.78;;;;;;;25.22;40.81;100376.59;4482959;32;32661;-70
2023/10/01 02:48:42;;;;;;;4.75;2.62;;;;;;;25.22;40.91;100383.94;4470148;32;34090;-68
2023/10/01 02:51:18;;;;;;;6.85;3.08;;;;;;;25.22;40.92;100381.22;4470393;32;33979;-68
2023/10/01 02:56:37;;;;;;;5.28;3.15;;;;;;;25.18;40.75;100384.41;4483970;32;32880;-68
2023/10/01 02:59:09;;;;;;;5.15;2.67;;;;;;;25.19;40.83;100388.81;4482772;32;33828;-69
2023/10/01 03:01:38;;;;;;;5.87;2.53;;;;;;;25.17;40.71;100387.34;4484172;32;33760;-69
2023/10/01 03:04:10;;;;;;;5.80;3.03;;;;;;;25.16;40.73;100381.06;4484178;32;33429;-69
2023/10/01 03:06:54;;;;;;;4.57;2.70;;;;;;;25.16;40.57;100386.53;4482915;32;33394;-69
2023/10/01 03:09:33;;;;;;;7.03;3.15;;;;;;;25.16;40.67;100383.78;4483985;32;34469;-69
2023/10/01 03:12:24;;;;;;;6.43;2.75;;;;;;;25.15;40.63;100382.13;4482356;32;34175;-68
2023/10/01 03:15:15;;;;;;;5.12;2.83;;;;;;;25.14;40.53;100385.91;4483167;32;33548;-70
2023/10/01 03:18:05;;;;;;;6.10;2.95;;;;;;;25.17;40.64;100390.91;4482562;32;33163;-69
2023/10/01 03:26:10;;;;;;;4.32;2.15;;;;;;;25.22;40.32;100378.50;4482654;32;33499;-71
2023/10/01 03:31:25;;;;;;;5.97;2.92;;;;;;;25.16;40.59;100378.31;4483720;32;34653;-68
2023/10/01 03:33:54;;;;;;;4.43;2.53;;;;;;;25.15;40.52;100384.84;4470125;32;33676;-71
2023/10/01 03:36:25;;;;;;;4.43;2.53;;;;;;;25.12;40.46;100385.28;4482615;32;34416;-69
2023/10/01 03:39:23;;;;;;;6.25;2.83;;;;;;;25.14;40.56;100380.47;4483825;32;33465;-70
2023/10/01 03:41:53;;;;;;;6.00;2.45;;;;;;;25.15;40.44;100379.41;4483604;32;34842;-70
2023/10/01 03:47:10;;;;;;;5.85;2.47;;;;;;;25.18;40.47;100378.09;4481683;32;32742;-71
2023/10/01 03:49:44;;;;;;;4.40;2.37;;;;;;;25.17;40.36;100380.00;4483609;32;34032;-71
2023/10/01 03:52:14;;;;;;;7.22;2.80;;;;;;;25.14;40.49;100374.16;4483682;32;33803;-71
2023/10/01 03:54:53;;;;;;;6.25;3.05;;;;;;;25.13;40.54;100381.53;4483468;32;34165;-73
2023/10/01 03:57:23;;;;;;;5.18;2.37;;;;;;;25.14;40.45;100385.91;4483535;32;34125;-69
2023/10/01 03:59:53;;;;;;;6.82;2.85;;;;;;;25.17;40.43;100377.25;4483317;32;33377;-72
2023/10/01 04:02:42;;;;;;;6.32;2.53;;;;;;;25.14;40.45;100385.91;4482107;32;34043;-69
2023/10/01 04:05:30;;;;;;;5.72;3.05;;;;;;;25.19;40.19;100388.81;4471565;32;34141;-71
2023/10/01 04:08:16;;;;;;;4.72;2.58;;;;;;;25.26;39.97;100382.44;4483370;32;34412;-69
2023/10/01 04:10:51;;;;;;;4.40;2.22;;;;;;;25.27;39.96;100390.41;4483397;32;32939;-70
2023/10/01 04:13:23;;;;;;;6.65;2.50;;;;;;;25.22;39.94;100386.69;4483249;32;34805;-69
2023/10/01 04:16:07;;;;;;;5.80;2.72;;;;;;;25.22;40.20;100383.94;4483382;32;34805;-68
2023/10/01 04:18:36;;;;;;;7.45;2.85;;;;;;;25.20;40.25;100389.66;4483111;32;33917;-68
2023/10/01 04:23:40;;;;;;;4.75;2.62;;;;;;;25.12;39.79;100396.22;4483173;32;34261;-68
2023/10/01 04:26:13;;;;;;;5.43;2.50;;;;;;;25.09;39.83;100398.59;4483194;32;33984;-68
2023/10/01 04:28:44;;;;;;;8.30;2.90;;;;;;;25.15;39.54;100401.25;4483952;32;33310;-68
2023/10/01 04:31:15;;;;;;;6.07;2.92;;;;;;;25.21;39.40;100409.59;4471308;32;34119;-68
2023/10/01 04:33:49;;;;;;;6.30;2.62;;;;;;;25.24;39.68;100411.88;4483881;32;33627;-67
2023/10/01 04:36:16;;;;;;;5.68;2.83;;;;;;;25.25;39.38;100414.38;4485129;32;34900;-68
2023/10/01 04:38:45;;;;;;;7.20;2.92;;;;;;;25.19;39.43;100416.13;4496862;31;34698;-68
2023/10/01 04:41:15;;;;;;;7.75;2.55;;;;;;;25.18;39.74;100416.31;4483846;32;33089;-68
2023/10/01 04:43:51;;;;;;;5.78;2.53;;;;;;;25.16;39.77;100407.53;4485447;32;33394;-68
2023/10/01 04:46:20;;;;;;;5.47;2.70;;;;;;;25.15;39.80;100420.34;4483960;32;33604;-67
2023/10/01 04:48:50;;;;;;;5.55;2.25;;;;;;;25.15;39.77;100423.09;4485008;32;33835;-67
2023/10/01 04:51:17;;;;;;;5.43;2.42;;;;;;;25.23;39.80;100421.97;4484915;32;33251;-68
2023/10/01 04:53:46;;;;;;;7.32;2.75;;;;;;;25.25;39.45;100435.41;4485129;32;34025;-68
2023/10/01 04:56:22;;;;;;;5.25;2.50;;;;;;;25.19;39.57;100426.22;4471245;32;33950;-68
2023/10/01 04:58:54;;;;;;;5.32;2.80;;;;;;;25.16;39.67;100434.84;4485359;32;33675;-68
2023/10/01 05:01:24;;;;;;;5.15;2.60;;;;;;;25.12;39.63;100433.63;4484900;32;33119;-72
2023/10/01 05:03:52;;;;;;;6.70;2.95;;;;;;;25.15;39.49;100435.91;4483659;32;33723;-68
2023/10/01 05:06:20;;;;;;;6.57;2.80;;;;;;;25.13;39.61;100446.19;4485094;32;33993;-67
2023/10/01 05:08:51;;;;;;;7.55;2.83;;;;;;;25.09;39.67;100440.37;4484950;32;34660;-67
2023/10/01 05:11:22;;;;;;;5.70;2.87;;;;;;;25.15;39.48;100438.62;4484781;32;33553;-67
2023/10/01 05:13:51;;;;;;;7.07;2.35;;;;;;;25.19;39.44;100442.59;4484768;32;33789;-67
2023/10/01 05:16:26;;;;;;;9.80;3.20;;;;;;;25.21;39.39;100435.00;4484896;32;34734;-67
2023/10/01 05:19:09;;;;;;;6.03;2.60;;;;;;;25.23;39.41;100438.38;4484829;32;34482;-68
2023/10/01 05:21:47;;;;;;;6.87;2.40;;;;;;;25.23;39.41;100440.22;4483656;32;33124;-67
2023/10/01 05:24:35;;;;;;;5.85;2.65;;;;;;;25.25;39.38;100440.87;4483671;32;33748;-67
2023/10/01 05:27:08;;;;;;;6.57;2.80;;;;;;;25.16;39.43;100441.13;4484890;32;33992;-68
2023/10/01 05:29:39;;;;;;;6.95;2.80;;;;;;;25.12;39.48;100439.91;4483565;32;34649;-68
2023/10/01 05:32:07;;;;;;;6.65;3.20;;;;;;;25.09;39.57;100445.84;4483701;32;33049;-68
2023/10/01 05:34:34;;;;;;;6.12;2.87;;;;;;;25.09;39.54;100450.47;4484588;32;34101;-68
2023/10/01 05:37:08;;;;;;;6.45;2.42;;;;;;;25.08;39.53;100454.22;4483306;32;34206;-67
2023/10/01 05:39:55;;;;;;;7.37;2.80;;;;;;;25.05;39.40;100439.09;4484603;32;34505;-67
2023/10/01 05:42:40;;;;;;;5.62;2.62;;;;;;;25.05;39.32;100447.31;4485002;32;33069;-67
2023/10/01 05:45:18;;;;;;;7.40;2.53;;;;;;;25.05;39.34;100452.75;4484625;32;34177;-67
2023/10/01 05:47:54;;;;;;;5.55;2.50;;;;;;;25.05;39.50;100457.37;4484538;32;34775;-67
2023/10/01 05:50:28;;;;;;;7.97;2.50;;;;;;;25.04;39.53;100463.87;4484707;32;33672;-67
2023/10/01 05:52:57;;;;;;;8.18;2.90;;;;;;;25.03;39.54;100471.25;4484809;32;33410;-67
2023/10/01 05:55:24;;;;;;;10.43;2.78;;;;;;;25.03;39.55;100471.25;4484365;32;33442;-68
2023/10/01 05:57:52;;;;;;;5.25;2.53;;;;;;;25.01;39.60;100462.44;4484562;32;33470;-68
2023/10/01 06:00:26;;;;;;;6.57;2.70;;;;;;;25.08;39.54;100471.44;4484677;32;35060;-67
2023/10/01 06:03:00;;;;;;;5.55;2.62;;;;;;;25.13;39.42;100462.59;4484328;32;33452;-67
2023/10/01 06:05:50;;;;;;;4.87;2.70;;;;;;;25.16;39.25;100460.25;4484412;32;34347;-67
2023/10/01 06:08:18;;;;;;;5.07;2.40;;;;;;;25.17;39.30;100472.00;4484525;32;33603;-68
2023/10/01 06:10:56;;;;;;;7.05;2.92;;;;;;;25.19;39.18;100468.00;4484683;32;33539;-67
2023/10/01 06:13:24;;;;;;;7.22;2.40;;;;;;;25.19;39.20;100472.66;4484338;32;33157;-67
2023/10/01 06:15:52;;;;;;;7.53;2.33;;;;;;;25.20;39.08;100468.84;4484450;32;33951;-68
2023/10/01 06:18:20;;;;;;;6.65;2.95;;;;;;;25.22;39.16;100474.06;4484380;32;34001;-67
2023/10/01 06:20:50;;;;;;;8.02;2.87;;;;;;;25.21;39.10;100466.94;4484157;32;34713;-67
2023/10/01 06:23:18;;;;;;;7.15;2.60;;;;;;;25.22;39.07;100463.16;4484534;32;33790;-68
2023/10/01 06:25:51;;;;;;;7.72;2.90;;;;;;;25.23;39.00;100467.56;4484494;32;34091;-67
2023/10/01 06:28:20;;;;;;;7.87;2.62;;;;;;;25.23;38.92;100467.56;4484313;32;34104;-68
2023/10/01 06:30:48;;;;;;;6.40;2.57;;;;;;;25.15;38.91;100471.41;4484421;32;34677;-67
2023/10/01 06:33:24;;;;;;;6.32;2.30;;;;;;;25.10;39.03;100477.53;4483024;32;33306;-70
2023/10/01 06:38:47;;;;;;;5.60;2.45;;;;;;;25.04;39.22;100478.41;4483166;32;33880;-67
2023/10/01 06:41:16;;;;;;;5.55;2.20;;;;;;;25.04;39.31;100483.00;4483139;32;33560;-67
2023/10/01 06:43:49;;;;;;;5.53;2.70;;;;;;;25.00;39.41;100484.53;4484365;32;33816;-67
2023/10/01 06:46:19;;;;;;;6.45;2.75;;;;;;;25.07;39.30;100480.69;4484331;32;33864;-67
2023/10/01 06:48:50;;;;;;;;;;;;;;;25.12;39.14;100486.31;4469679;32;33502;-67
2023/10/01 06:51:21;;;;;;;5.45;2.80;;;;;;;25.25;38.84;100479.94;4482761;32;33505;-68
2023/10/01 06:53:53;;;;;;;7.18;2.72;;;;;;;25.18;38.96;100477.28;4482926;32;33396;-67
2023/10/01 06:56:21;;;;;;;6.68;2.90;;;;;;;25.16;38.93;100471.19;4484240;32;33442;-67
2023/10/01 07:01:47;;;;;;;6.87;2.75;;;;;;;25.17;38.97;100475.56;4484283;32;33713;-68
2023/10/01 07:04:20;;;;;;;5.72;2.47;;;;;;;25.17;39.00;100489.22;4482718;32;33245;-68
2023/10/01 07:06:51;;;;;;;4.57;2.17;;;;;;;25.18;38.91;100492.78;4482655;32;34712;-71
2023/10/01 07:09:25;;;;;;;7.55;2.40;;;;;;;25.18;38.82;100501.84;4482679;32;34759;-68
2023/10/01 07:11:56;;;;;;;7.03;2.80;;;;;;;25.18;38.56;100501.00;4483918;32;33877;-67
2023/10/01 07:14:43;;;;;;;6.75;2.75;;;;;;;25.17;38.33;100502.06;4483732;32;34209;-68
2023/10/01 07:17:14;;;;;;;7.50;2.85;;;;;;;25.17;38.03;100500.16;4484208;32;33888;-69
2023/10/01 07:19:45;;;;;;;8.57;2.87;;;;;;;25.16;38.29;100500.38;4482382;32;33919;-68
2023/10/01 07:22:20;;;;;;;6.15;2.92;;;;;;;25.17;38.40;100504.78;4482265;32;33777;-67
2023/10/01 07:24:48;;;;;;;5.65;2.58;;;;;;;25.18;38.53;100501.84;4468081;32;33413;-66
2023/10/01 07:27:17;;;;;;;8.15;2.78;;;;;;;25.19;38.58;100506.25;4468179;32;34265;-65
2023/10/01 07:29:45;;;;;;;8.83;2.67;;;;;;;25.19;38.60;100500.78;4468103;32;33895;-65
2023/10/01 07:32:12;;;;;;;10.20;2.95;;;;;;;25.20;38.49;100498.88;4466740;32;33837;-67
2023/10/01 07:34:52;;;;;;;7.65;2.65;;;;;;;25.20;38.59;100498.88;4468365;32;33495;-66
2023/10/01 07:37:31;;;;;;;8.57;3.17;;;;;;;25.19;38.66;100495.31;4467076;32;34311;-67
2023/10/01 07:40:09;;;;;;;7.30;2.60;;;;;;;25.19;38.72;100494.50;4467978;32;34491;-65
2023/10/01 07:42:46;;;;;;;8.38;3.40;;;;;;;25.20;38.72;100507.09;4468063;32;33825;-66
2023/10/01 07:45:17;;;;;;;8.35;2.75;;;;;;;25.19;38.68;100516.34;4468043;32;33609;-66
2023/10/01 07:47:45;;;;;;;6.53;2.83;;;;;;;25.17;38.57;100513.81;4467958;32;33552;-66
2023/10/01 07:50:12;;;;;;;7.20;2.70;;;;;;;25.18;38.50;100509.19;4467919;32;33599;-66
2023/10/01 07:52:44;;;;;;;8.05;2.70;;;;;;;25.17;38.58;100511.06;4466749;32;33770;-68
2023/10/01 07:55:29;;;;;;;9.35;2.78;;;;;;;25.17;38.55;100508.34;4454101;32;32442;-66
2023/10/01 08:00:47;;;;;;;6.28;3.03;;;;;;;25.17;37.99;100512.97;4466261;32;34023;-65
2023/10/01 08:05:48;;;;;;;7.12;2.83;;;;;;;25.13;37.51;100514.47;4467750;32;33010;-66
2023/10/01 08:08:35;;;;;;;7.70;3.05;;;;;;;25.13;37.09;100511.75;4467914;32;33568;-66
2023/10/01 08:11:03;;;;;;;5.47;2.62;;;;;;;25.10;36.89;100515.75;4482193;32;33935;-65
2023/10/01 08:13:31;;;;;;;5.90;2.55;;;;;;;25.09;37.21;100518.72;4481994;32;34718;-67
2023/10/01 08:16:01;;;;;;;8.40;3.10;;;;;;;25.08;37.12;100517.03;4482873;32;34140;-67
2023/10/01 08:18:35;;;;;;;8.13;3.10;;;;;;;25.08;36.97;100525.22;4483208;32;33657;-67
2023/10/01 08:21:04;;;;;;;10.15;2.90;;;;;;;25.08;36.79;100536.13;4481534;32;34789;-65
2023/10/01 08:23:45;;;;;;;7.57;3.17;;;;;;;25.03;36.98;100525.00;4483043;32;34541;-65
2023/10/01 08:29:00;;;;;;;10.02;3.53;;;;;;;25.03;37.43;100514.94;4471147;32;34646;-65
2023/10/01 08:35:01;;;;;;;9.90;3.45;;;;;;;25.03;37.38;100512.19;4420168;32;33772;-67
2023/10/01 08:37:22;;;;;;;6.97;2.80;;;;;;;25.03;37.04;100517.66;4480228;31;32942;-67
2023/10/01 08:39:53;;;;;;;7.40;3.10;;;;;;;25.02;36.81;100513.25;4482540;32;33736;-66
2023/10/01 08:42:28;;;;;;;8.82;3.05;;;;;;;25.01;36.83;100522.50;4482786;32;33946;-66
2023/10/01 08:45:04;;;;;;;7.55;3.05;;;;;;;25.00;36.68;100522.75;4482486;32;33857;-66
2023/10/01 08:47:34;;;;;;;9.63;3.60;;;;;;;24.99;36.64;100521.87;4469331;32;31850;-66
2023/10/01 08:50:26;;;;;;;;;;;;;;;24.99;36.71;100537.44;4481924;32;34536;-66
2023/10/01 08:52:57;;;;;;;8.90;3.55;;;;;;;25.08;36.56;100547.91;4482493;32;33947;-65
2023/10/01 08:55:39;;;;;;;6.90;2.85;;;;;;;24.99;36.69;100541.00;4482475;32;33729;-66
2023/10/01 09:01:15;;;;;;;8.75;3.22;;;;;;;24.96;36.84;100538.72;4463428;32;33839;-66
2023/10/01 09:03:51;;;;;;;8.05;3.25;;;;;;;24.97;36.87;100539.56;4474976;32;33240;-66
2023/10/01 09:06:25;;;;;;;9.05;3.25;;;;;;;24.96;36.77;100536.00;4471706;32;34473;-69
2023/10/01 09:09:01;;;;;;;11.07;3.20;;;;;;;24.97;36.63;100539.56;4493113;31;33140;-66
2023/10/01 09:11:41;;;;;;;11.55;3.53;;;;;;;24.97;36.64;100539.56;4467356;32;33673;-65
2023/10/01 09:14:21;;;;;;;10.02;2.92;;;;;;;24.96;36.55;100541.44;4471878;32;34769;-66
2023/10/01 09:16:57;;;;;;;9.15;3.37;;;;;;;24.96;36.44;100530.53;4483987;32;34491;-66
2023/10/01 09:19:34;;;;;;;7.95;3.33;;;;;;;24.97;36.29;100536.81;4470063;32;33328;-65
2023/10/01 09:22:09;;;;;;;8.90;3.10;;;;;;;24.97;36.51;100524.00;4483569;32;33828;-66
2023/10/01 09:24:42;;;;;;;14.23;3.42;;;;;;;24.99;36.41;100530.06;4470885;32;34813;-65
2023/10/01 09:27:21;;;;;;;10.77;3.40;;;;;;;24.98;36.27;100522.94;4484652;32;33859;-66
2023/10/01 09:29:57;;;;;;;8.73;3.20;;;;;;;24.98;36.02;100527.56;4484338;32;34330;-66
2023/10/01 09:32:52;;;;;;;9.15;3.58;;;;;;;24.99;36.14;100521.87;4484348;32;34670;-66
2023/10/01 09:35:30;;;;;;;8.45;2.70;;;;;;;25.00;36.18;100526.31;4472402;32;34405;-66
2023/10/01 09:38:11;;;;;;;15.15;3.00;;;;;;;24.98;35.65;100525.66;4484598;32;34601;-66
2023/10/01 09:40:42;;;;;;;6.20;2.50;;;;;;;24.98;35.57;100514.75;4483392;32;33295;-66
2023/10/01 09:43:18;;;;;;;11.40;3.40;;;;;;;24.96;35.75;100527.81;4481202;32;33677;-67
2023/10/01 09:45:48;;;;;;;7.10;2.45;;;;;;;24.95;35.85;100520.66;4483461;32;33579;-66
2023/10/01 09:48:30;;;;;;;9.30;3.30;;;;;;;24.94;35.97;100524.44;4483166;32;34299;-66
2023/10/01 09:51:07;;;;;;;8.40;3.10;;;;;;;24.96;36.11;100519.59;4484574;32;33083;-66
2023/10/01 09:53:43;;;;;;;5.85;2.83;;;;;;;24.96;35.83;100524.25;4484239;32;33821;-67
2023/10/01 09:56:26;;;;;;;10.75;3.67;;;;;;;24.94;35.88;100522.53;4483379;32;33957;-65
2023/10/01 09:59:03;;;;;;;10.23;3.30;;;;;;;24.95;35.85;100523.41;4483472;32;33814;-65
2023/10/01 10:01:36;;;;;;;7.62;2.75;;;;;;;24.97;35.98;100528.63;4483436;32;34223;-68
2023/10/01 10:04:08;;;;;;;8.75;3.25;;;;;;;24.96;35.82;100525.06;4484027;32;33738;-65
2023/10/01 10:06:38;;;;;;;12.50;3.40;;;;;;;24.96;35.84;100518.78;4457705;32;32965;-66
2023/10/01 10:09:25;;;;;;;8.40;2.62;;;;;;;24.97;35.94;100524.00;4483536;32;34525;-66
2023/10/01 10:11:53;;;;;;;7.90;2.87;;;;;;;24.99;35.97;100526.50;4472437;32;34322;-67
2023/10/01 10:14:27;;;;;;;8.27;2.75;;;;;;;25.00;36.19;100523.56;4483064;32;34621;-63
2023/10/01 10:16:58;;;;;;;9.77;2.67;;;;;;;24.99;36.09;100523.78;4484537;32;34733;-64
2023/10/01 10:19:26;;;;;;;7.85;3.17;;;;;;;24.99;36.05;100532.81;4482598;32;33653;-65
2023/10/01 10:24:32;;;;;;;7.15;2.42;;;;;;;25.02;36.04;100534.28;4484219;32;33975;-67
2023/10/01 10:27:07;;;;;;;9.80;3.05;;;;;;;25.01;36.03;100538.91;4484190;32;33982;-66
2023/10/01 10:29:47;;;;;;;8.60;2.97;;;;;;;25.01;35.80;100536.16;4484157;32;34498;-65
2023/10/01 10:32:14;;;;;;;5.75;2.75;;;;;;;25.03;35.78;100528.56;4483912;32;33235;-66
2023/10/01 10:35:04;;;;;;;7.50;3.40;;;;;;;25.02;35.47;100520.62;4483095;32;33988;-67
2023/10/01 10:37:37;;;;;;;7.45;2.65;;;;;;;25.03;35.34;100517.66;4483680;32;33956;-66
2023/10/01 10:42:58;;;;;;;7.18;2.67;;;;;;;24.97;34.88;100512.25;4483198;32;33325;-66
2023/10/01 10:45:42;;;;;;;5.95;2.50;;;;;;;24.97;34.99;100507.63;4484200;32;33864;-66
2023/10/01 10:48:14;;;;;;;6.53;2.53;;;;;;;24.93;35.10;100512.69;4478183;32;34674;-66
2023/10/01 10:50:57;;;;;;;8.32;2.95;;;;;;;24.87;35.29;100513.56;4470660;32;34512;-65
2023/10/01 10:53:43;;;;;;;7.25;3.05;;;;;;;24.85;35.19;100506.62;4472760;32;33830;-65
2023/10/01 10:56:15;;;;;;;5.75;2.50;;;;;;;24.80;35.25;100511.91;4469784;32;32858;-65
2023/10/01 10:58:43;;;;;;;7.53;2.90;;;;;;;24.84;35.16;100516.72;4479060;32;34625;-66
2023/10/01 11:01:22;;;;;;;5.68;2.37;;;;;;;24.88;34.91;100508.94;4484195;32;34130;-67
2023/10/01 11:03:54;;;;;;;7.95;2.87;;;;;;;24.90;34.79;100513.12;4482728;32;33076;-66
2023/10/01 11:06:39;;;;;;;5.75;2.83;;;;;;;24.92;35.19;100507.44;4483861;32;33799;-66
2023/10/01 11:09:26;;;;;;;7.60;2.85;;;;;;;24.91;35.17;100500.31;4458818;32;32953;-65
2023/10/01 11:12:18;;;;;;;11.12;2.72;;;;;;;24.95;35.30;100507.03;4484071;32;33760;-66
2023/10/01 11:15:25;;;;;;;7.90;2.87;;;;;;;24.97;35.39;100501.34;4471626;32;33210;-65
2023/10/01 11:18:09;;;;;;;14.45;3.00;;;;;;;24.98;35.48;100503.84;4483565;32;33913;-65
2023/10/01 11:20:45;;;;;;;7.90;3.05;;;;;;;24.96;35.58;100505.97;4483823;32;33913;-65
2023/10/01 11:23:16;;;;;;;9.02;2.83;;;;;;;24.95;35.55;100507.03;4484007;32;33342;-65
2023/10/01 11:25:47;;;;;;;7.10;2.70;;;;;;;24.96;35.68;100505.13;4482786;32;33305;-67
2023/10/01 11:28:15;;;;;;;11.23;3.15;;;;;;;24.96;35.50;100505.13;4483558;32;34840;-65
2023/10/01 11:30:43;;;;;;;7.72;2.78;;;;;;;24.89;35.70;100488.78;4469754;32;32751;-66
2023/10/01 11:35:59;;;;;;;8.88;3.15;;;;;;;24.86;35.67;100486.50;4481591;32;33146;-65
2023/10/01 11:38:28;;;;;;;6.72;2.70;;;;;;;24.92;35.70;100480.97;4483578;32;33914;-66
2023/10/01 11:41:12;;;;;;;7.30;2.70;;;;;;;24.95;35.44;100482.44;4482577;32;35353;-65
2023/10/01 11:43:59;;;;;;;7.07;2.67;;;;;;;24.96;34.73;100477.81;4483726;32;33840;-65
2023/10/01 11:49:37;;;;;;;7.78;2.70;;;;;;;24.97;34.49;100463.09;4481754;32;33833;-65
2023/10/01 11:52:25;;;;;;;8.23;2.60;;;;;;;24.94;34.69;100465.22;4483531;32;34003;-65
2023/10/01 11:54:53;;;;;;;6.45;2.67;;;;;;;24.98;34.67;100460.16;4482377;32;33932;-66
2023/10/01 11:57:22;;;;;;;10.00;2.62;;;;;;;24.96;34.75;100465.00;4483435;32;34148;-66
2023/10/01 11:59:54;;;;;;;11.75;2.78;;;;;;;24.97;34.54;100465.84;4483456;32;34572;-64
2023/10/01 12:02:23;;;;;;;8.95;2.80;;;;;;;24.98;34.44;100465.59;4482178;32;34761;-65
2023/10/01 12:04:59;;;;;;;7.43;2.45;;;;;;;24.97;34.38;100453.03;4483471;32;33879;-65
2023/10/01 12:07:32;;;;;;;7.93;3.12;;;;;;;24.98;34.88;100457.41;4465613;32;32566;-68
2023/10/01 12:10:04;;;;;;;4.78;2.10;;;;;;;24.97;34.60;100444.84;4475125;32;34075;-66
2023/10/01 12:12:39;;;;;;;9.25;2.55;;;;;;;24.98;34.65;100441.03;4469580;32;34449;-64
2023/10/01 12:17:54;;;;;;;7.90;2.72;;;;;;;24.94;34.52;100448.00;4481500;32;33230;-65
2023/10/01 12:20:22;;;;;;;6.75;2.47;;;;;;;24.88;34.69;100441.53;4481939;32;33977;-65
2023/10/01 12:28:27;;;;;;;8.52;2.37;;;;;;;24.84;34.76;100436.72;4467584;32;33199;-66
2023/10/01 12:31:00;;;;;;;7.12;2.60;;;;;;;24.82;34.28;100419.75;4482977;32;34176;-64
2023/10/01 12:33:40;;;;;;;9.15;2.83;;;;;;;24.81;34.57;100418.91;4482854;32;33489;-64
2023/10/01 12:36:31;;;;;;;6.30;1.90;;;;;;;24.82;34.01;100426.03;4483272;32;33781;-65
2023/10/01 12:39:16;;;;;;;6.28;2.05;;;;;;;24.83;33.93;100429.59;4476984;32;33829;-66
2023/10/01 12:41:56;;;;;;;6.28;2.35;;;;;;;24.82;33.65;100428.78;4470454;32;33907;-67
2023/10/01 12:44:34;;;;;;;6.70;2.15;;;;;;;24.82;33.59;100425.22;4481677;32;33894;-64
2023/10/01 12:47:07;;;;;;;8.77;2.30;;;;;;;24.82;33.52;100417.84;4481839;32;33719;-65
2023/10/01 12:49:36;;;;;;;6.28;2.10;;;;;;;24.82;33.24;100417.03;4484787;32;34046;-66
2023/10/01 12:52:08;;;;;;;;;;;;;;;24.81;33.09;100412.63;4485381;32;33414;-65
2023/10/01 12:54:36;;;;;;;8.00;2.30;;;;;;;24.89;32.53;100415.91;4485006;32;34226;-65
2023/10/01 12:57:18;;;;;;;4.90;2.17;;;;;;;24.82;32.77;100412.41;4485029;32;33857;-66
2023/10/01 13:02:42;;;;;;;5.85;2.25;;;;;;;24.80;32.81;100395.38;4484887;32;34809;-65